createdAt,value
2017-12-20T00:02:26.928Z,39.40
2017-12-20T00:04:54.395Z,44.97
2017-12-20T00:07:22.178Z,37.15
2017-12-20T00:09:49.665Z,39.83
2017-12-20T00:12:17.920Z,38.25
2017-12-20T00:14:45.464Z,35.70
2017-12-20T00:17:13.711Z,36.47
2017-12-20T00:19:41.446Z,32.80
2017-12-20T00:22:08.919Z,44.05
2017-12-20T00:24:37.175Z,43.65
2017-12-20T00:27:05.443Z,37.10
2017-12-20T00:29:33.710Z,41.85
2017-12-20T00:32:01.996Z,43.53
2017-12-20T00:34:29.460Z,42.85
2017-12-20T00:36:56.945Z,46.95
2017-12-20T00:39:25.232Z,50.35
2017-12-20T00:41:52.692Z,43.65
2017-12-20T00:44:20.556Z,49.28
2017-12-20T00:46:48.044Z,56.55
2017-12-20T00:49:16.403Z,59.40
2017-12-20T00:51:45.022Z,64.40
2017-12-20T00:54:12.503Z,44.75
2017-12-20T00:56:40.056Z,59.05
2017-12-20T00:59:08.283Z,55.60
2017-12-20T01:01:35.780Z,52.58
2017-12-20T01:04:03.352Z,58.67
2017-12-20T01:06:30.849Z,55.38
2017-12-20T01:08:59.105Z,77.45
2017-12-20T01:11:26.659Z,73.07
2017-12-20T01:13:55.007Z,70.57
2017-12-20T01:16:23.272Z,65.32
2017-12-20T01:18:51.495Z,72.47
2017-12-20T01:21:18.992Z,60.08
2017-12-20T01:23:46.516Z,63.35
2017-12-20T01:26:14.776Z,68.55
2017-12-20T01:28:43.008Z,64.85
2017-12-20T01:31:10.469Z,70.35
2017-12-20T01:33:37.949Z,60.10
2017-12-20T01:36:05.820Z,62.65
2017-12-20T01:38:33.308Z,60.97
2017-12-20T01:41:00.851Z,50.25
2017-12-20T01:43:28.489Z,59.00
2017-12-20T01:45:56.303Z,55.30
2017-12-20T01:48:24.479Z,58.78
2017-12-20T01:50:52.005Z,72.93
2017-12-20T01:53:19.468Z,64.97
2017-12-20T01:55:46.956Z,69.05
2017-12-20T01:58:15.183Z,69.30
2017-12-20T02:00:42.780Z,75.78
2017-12-20T02:03:11.014Z,58.10
2017-12-20T02:05:38.489Z,66.60
2017-12-20T02:08:05.952Z,61.92
2017-12-20T02:10:33.409Z,71.43
2017-12-20T02:13:00.988Z,67.90
2017-12-20T02:15:29.095Z,68.00
2017-12-20T02:17:56.548Z,55.65
2017-12-20T02:20:24.031Z,65.82
2017-12-20T02:22:52.396Z,61.78
2017-12-20T02:25:20.648Z,78.62
2017-12-20T02:27:48.889Z,61.13
2017-12-20T02:30:16.815Z,66.75
2017-12-20T02:32:44.268Z,72.05
2017-12-20T02:35:12.116Z,77.30
2017-12-20T02:37:39.600Z,86.20
2017-12-20T02:40:07.142Z,72.70
2017-12-20T02:42:35.382Z,78.55
2017-12-20T02:45:02.944Z,61.65
2017-12-20T02:47:31.212Z,76.72
2017-12-20T02:49:59.584Z,79.22
2017-12-20T02:52:27.882Z,106.82
2017-12-20T02:54:55.340Z,72.22
2017-12-20T02:57:22.795Z,87.20
2017-12-20T02:59:50.288Z,76.40
2017-12-20T03:02:17.748Z,75.57
2017-12-20T03:04:45.598Z,78.93
2017-12-20T03:07:13.193Z,73.15
2017-12-20T03:09:41.415Z,73.45
2017-12-20T03:12:08.872Z,72.12
2017-12-20T03:14:36.349Z,66.35
2017-12-20T03:17:04.696Z,73.55
2017-12-20T03:19:32.924Z,87.47
2017-12-20T03:22:00.398Z,81.12
2017-12-20T03:24:27.856Z,80.80
2017-12-20T03:26:56.460Z,86.22
2017-12-20T03:29:23.920Z,103.95
2017-12-20T03:31:51.376Z,87.78
2017-12-20T03:34:18.937Z,107.47
2017-12-20T03:36:47.194Z,94.55
2017-12-20T03:39:15.428Z,111.53
2017-12-20T03:41:43.255Z,90.72
2017-12-20T03:44:10.725Z,94.25
2017-12-20T03:46:39.366Z,102.20
2017-12-20T03:49:06.824Z,129.57
2017-12-20T03:51:34.576Z,87.20
2017-12-20T03:54:02.048Z,94.80
2017-12-20T03:56:30.304Z,104.45
2017-12-20T03:58:57.850Z,90.45
2017-12-20T04:01:25.306Z,86.55
2017-12-20T04:03:54.629Z,91.07
2017-12-20T04:06:22.081Z,79.25
2017-12-20T04:08:50.548Z,97.22
2017-12-20T04:11:18.028Z,97.05
2017-12-20T04:13:46.245Z,96.55
2017-12-20T04:16:13.719Z,96.00
2017-12-20T04:18:41.734Z,95.05
2017-12-20T04:21:09.220Z,99.43
2017-12-20T04:23:36.684Z,113.12
2017-12-20T04:26:04.157Z,90.90
2017-12-20T04:28:31.632Z,113.55
2017-12-20T04:30:59.095Z,92.60
2017-12-20T04:33:27.352Z,79.95
2017-12-20T04:35:55.972Z,81.18
2017-12-20T04:38:23.736Z,66.05
2017-12-20T04:40:51.220Z,82.93
2017-12-20T04:43:19.472Z,77.30
2017-12-20T04:45:47.703Z,69.00
2017-12-20T04:48:15.171Z,71.45
2017-12-20T04:50:43.432Z,73.62
2017-12-20T04:53:11.688Z,92.80
2017-12-20T04:55:39.951Z,80.00
2017-12-20T04:58:08.180Z,79.22
2017-12-20T05:00:35.642Z,67.55
2017-12-20T05:03:03.123Z,76.90
2017-12-20T05:05:31.144Z,76.18
2017-12-20T05:07:58.604Z,77.20
2017-12-20T05:10:26.861Z,74.68
2017-12-20T05:12:55.472Z,87.43
2017-12-20T05:15:23.322Z,92.80
2017-12-20T05:17:50.777Z,96.20
2017-12-20T05:20:19.064Z,82.65
2017-12-20T05:22:47.332Z,87.43
2017-12-20T05:25:16.077Z,103.65
2017-12-20T05:27:43.598Z,78.95
2017-12-20T05:30:11.053Z,65.43
2017-12-20T05:32:38.889Z,72.90
2017-12-20T05:35:06.383Z,77.40
2017-12-20T05:37:35.464Z,85.45
2017-12-20T05:40:03.691Z,93.03
2017-12-20T05:42:31.265Z,94.53
2017-12-20T05:45:00.132Z,81.37
2017-12-20T05:47:28.552Z,71.78
2017-12-20T05:49:56.001Z,81.07
2017-12-20T05:52:24.168Z,85.62
2017-12-20T05:54:51.629Z,66.82
2017-12-20T05:57:19.531Z,70.62
2017-12-20T05:59:46.988Z,75.20
2017-12-20T06:02:14.448Z,66.53
2017-12-20T06:04:41.917Z,61.28
2017-12-20T06:07:09.952Z,79.20
2017-12-20T06:09:37.524Z,65.53
2017-12-20T06:12:05.777Z,74.82
2017-12-20T06:14:34.604Z,78.28
2017-12-20T06:17:02.811Z,73.35
2017-12-20T06:19:31.036Z,66.50
2017-12-20T06:21:58.496Z,74.22
2017-12-20T06:24:25.968Z,64.57
2017-12-20T06:26:54.191Z,59.55
2017-12-20T06:29:21.757Z,65.72
2017-12-20T06:31:50.017Z,59.17
2017-12-20T06:34:18.280Z,67.05
2017-12-20T06:36:46.541Z,59.55
2017-12-20T06:39:14.763Z,70.28
2017-12-20T06:41:43.109Z,73.32
2017-12-20T06:44:10.560Z,71.50
2017-12-20T06:46:38.144Z,72.22
2017-12-20T06:49:05.691Z,73.53
2017-12-20T06:51:33.960Z,74.65
2017-12-20T06:54:02.213Z,68.12
2017-12-20T06:56:30.448Z,73.87
2017-12-20T06:59:00.265Z,78.80
2017-12-20T07:01:27.815Z,73.40
2017-12-20T07:03:56.924Z,71.00
2017-12-20T07:06:24.384Z,79.30
2017-12-20T07:08:52.451Z,66.47
2017-12-20T07:11:19.941Z,68.57
2017-12-20T07:13:48.915Z,76.12
2017-12-20T07:16:17.140Z,65.85
2017-12-20T07:18:44.966Z,80.68
2017-12-20T07:21:12.513Z,79.57
2017-12-20T07:23:39.968Z,86.00
2017-12-20T07:26:08.205Z,85.93
2017-12-20T07:28:35.668Z,77.60
2017-12-20T07:31:03.568Z,79.43
2017-12-20T07:33:31.028Z,72.25
2017-12-20T07:35:58.588Z,63.65
2017-12-20T07:38:26.833Z,64.62
2017-12-20T07:40:54.392Z,68.47
2017-12-20T07:43:22.650Z,70.12
2017-12-20T07:45:50.191Z,63.30
2017-12-20T07:48:18.452Z,61.95
2017-12-20T07:50:46.708Z,69.93
2017-12-20T07:53:14.170Z,67.40
2017-12-20T07:55:42.468Z,71.75
2017-12-20T07:58:09.965Z,70.05
2017-12-20T08:00:38.228Z,76.90
2017-12-20T08:03:06.452Z,71.78
2017-12-20T08:05:34.285Z,65.40
2017-12-20T08:08:01.765Z,63.67
2017-12-20T08:10:29.234Z,57.72
2017-12-20T08:12:56.687Z,64.18
2017-12-20T08:15:24.417Z,71.95
2017-12-20T08:17:51.916Z,65.53
2017-12-20T08:20:20.160Z,73.75
2017-12-20T08:22:48.400Z,64.32
2017-12-20T08:25:16.628Z,56.22
2017-12-20T08:27:44.124Z,59.45
2017-12-20T08:30:11.600Z,58.80
2017-12-20T08:32:39.119Z,62.38
2017-12-20T08:35:07.331Z,54.95
2017-12-20T08:37:34.852Z,69.20
2017-12-20T08:40:03.080Z,47.75
2017-12-20T08:42:30.532Z,54.72
2017-12-20T08:44:59.616Z,62.13
2017-12-20T08:47:27.432Z,52.72
2017-12-20T08:49:55.944Z,57.78
2017-12-20T08:52:24.207Z,51.67
2017-12-20T08:54:52.228Z,60.85
2017-12-20T08:57:20.380Z,59.90
2017-12-20T08:59:47.864Z,50.08
2017-12-20T09:02:16.173Z,57.95
2017-12-20T09:04:43.665Z,56.03
2017-12-20T09:07:11.466Z,54.60
2017-12-20T09:09:39.946Z,55.15
2017-12-20T09:12:07.424Z,49.50
2017-12-20T09:14:35.711Z,64.15
2017-12-20T09:17:03.181Z,54.53
2017-12-20T09:19:30.644Z,52.10
2017-12-20T09:21:58.713Z,58.22
2017-12-20T09:24:26.182Z,54.97
2017-12-20T09:26:54.404Z,54.75
2017-12-20T09:29:21.968Z,54.70
2017-12-20T09:31:50.220Z,60.78
2017-12-20T09:34:18.027Z,55.85
2017-12-20T09:36:45.482Z,48.05
2017-12-20T09:39:12.950Z,55.80
2017-12-20T09:41:40.448Z,55.67
2017-12-20T09:44:08.696Z,64.45
2017-12-20T09:46:36.251Z,72.30
2017-12-20T09:49:03.714Z,58.45
2017-12-20T09:51:31.240Z,66.95
2017-12-20T09:53:59.496Z,64.97
2017-12-20T09:56:27.759Z,46.88
2017-12-20T09:58:56.020Z,54.45
2017-12-20T10:01:24.279Z,63.58
2017-12-20T10:03:53.120Z,49.85
2017-12-20T10:06:20.616Z,49.05
2017-12-20T10:08:48.076Z,56.03
2017-12-20T10:11:16.040Z,53.13
2017-12-20T10:13:44.264Z,55.05
2017-12-20T10:16:12.603Z,55.40
2017-12-20T10:18:40.065Z,58.30
2017-12-20T10:21:08.308Z,46.78
2017-12-20T10:23:36.576Z,40.28
2017-12-20T10:26:05.393Z,52.62
2017-12-20T10:28:32.884Z,57.33
2017-12-20T10:31:00.344Z,55.97
2017-12-20T10:33:28.572Z,54.15
2017-12-20T10:35:56.143Z,51.75
2017-12-20T10:38:24.387Z,54.10
2017-12-20T10:40:51.853Z,55.58
2017-12-20T10:43:20.076Z,55.45
2017-12-20T10:45:47.560Z,46.40
2017-12-20T10:48:15.797Z,51.83
2017-12-20T10:50:44.263Z,52.60
2017-12-20T10:53:11.817Z,56.08
2017-12-20T10:55:40.088Z,57.40
2017-12-20T10:58:08.320Z,55.50
2017-12-20T11:00:36.614Z,61.28
2017-12-20T11:03:04.864Z,57.55
2017-12-20T11:05:33.111Z,61.53
2017-12-20T11:08:00.573Z,42.22
2017-12-20T11:10:29.179Z,48.95
2017-12-20T11:12:57.029Z,47.53
2017-12-20T11:15:24.516Z,44.72
2017-12-20T11:17:52.068Z,48.33
2017-12-20T11:20:20.304Z,50.63
2017-12-20T11:22:47.771Z,44.00
2017-12-20T11:25:16.028Z,43.22
2017-12-20T11:27:44.294Z,42.17
2017-12-20T11:30:12.520Z,39.92
2017-12-20T11:32:40.454Z,44.78
2017-12-20T11:35:07.939Z,39.45
2017-12-20T11:37:35.399Z,47.83
2017-12-20T11:40:02.855Z,43.87
2017-12-20T11:42:30.423Z,46.55
2017-12-20T11:44:58.331Z,45.90
2017-12-20T11:47:25.815Z,41.20
2017-12-20T11:49:53.287Z,41.58
2017-12-20T11:52:21.345Z,45.42
2017-12-20T11:54:49.128Z,45.83
2017-12-20T11:57:16.969Z,53.63
2017-12-20T11:59:44.596Z,55.17
2017-12-20T12:02:12.112Z,61.40
2017-12-20T12:04:40.335Z,56.60
2017-12-20T12:07:09.532Z,54.80
2017-12-20T12:09:37.088Z,56.65
2017-12-20T12:12:04.590Z,51.03
2017-12-20T12:14:32.908Z,55.42
2017-12-20T12:17:01.135Z,50.35
2017-12-20T12:19:28.616Z,58.38
2017-12-20T12:21:56.080Z,55.50
2017-12-20T12:24:23.536Z,54.60
2017-12-20T12:26:51.005Z,48.30
2017-12-20T12:29:18.560Z,55.60
2017-12-20T12:31:46.824Z,46.28
2017-12-20T12:34:15.090Z,47.20
2017-12-20T12:36:42.556Z,45.42
2017-12-20T12:39:10.020Z,46.08
2017-12-20T12:41:37.478Z,44.53
2017-12-20T12:44:04.964Z,55.88
2017-12-20T12:46:33.226Z,46.33
2017-12-20T12:49:02.304Z,39.25
2017-12-20T12:51:30.553Z,41.00
2017-12-20T12:53:59.383Z,61.25
2017-12-20T12:56:27.573Z,43.35
2017-12-20T12:58:55.056Z,38.92
2017-12-20T13:01:22.516Z,46.58
2017-12-20T13:03:49.977Z,40.10
2017-12-20T13:06:17.497Z,35.38
2017-12-20T13:08:45.702Z,39.72
2017-12-20T13:11:13.625Z,38.85
2017-12-20T13:13:41.125Z,49.65
2017-12-20T13:16:09.979Z,40.90
2017-12-20T13:18:37.448Z,39.53
2017-12-20T13:21:05.693Z,36.40
2017-12-20T13:23:33.956Z,40.65
2017-12-20T13:26:02.216Z,49.00
2017-12-20T13:28:30.571Z,48.13
2017-12-20T13:30:58.836Z,45.05
2017-12-20T13:33:27.090Z,41.67
2017-12-20T13:35:56.163Z,44.30
2017-12-20T13:38:26.216Z,46.15
2017-12-20T13:40:53.669Z,44.40
2017-12-20T13:43:21.507Z,47.90
2017-12-20T13:45:48.952Z,36.15
2017-12-20T13:48:16.449Z,46.00
2017-12-20T13:50:45.163Z,37.90
2017-12-20T13:53:12.651Z,44.33
2017-12-20T13:55:40.919Z,33.15
2017-12-20T13:58:09.153Z,40.05
2017-12-20T14:00:36.775Z,47.65
2017-12-20T14:03:04.259Z,32.40
2017-12-20T14:05:32.390Z,38.30
2017-12-20T14:07:59.864Z,29.65
2017-12-20T14:10:28.491Z,32.95
2017-12-20T14:12:55.967Z,32.67
2017-12-20T14:15:24.200Z,32.40
2017-12-20T14:17:51.659Z,32.47
2017-12-20T14:20:19.213Z,33.78
2017-12-20T14:22:47.834Z,33.72
2017-12-20T14:25:15.306Z,35.38
2017-12-20T14:27:42.776Z,40.25
2017-12-20T14:30:11.003Z,34.30
2017-12-20T14:32:38.929Z,38.35
2017-12-20T14:35:06.419Z,33.92
2017-12-20T14:37:33.987Z,36.42
2017-12-20T14:40:02.912Z,32.63
2017-12-20T14:42:30.405Z,35.60
2017-12-20T14:44:58.636Z,28.42
2017-12-20T14:47:26.105Z,35.80
2017-12-20T14:49:54.359Z,33.55
2017-12-20T14:52:22.444Z,30.60
2017-12-20T14:54:49.960Z,29.73
2017-12-20T14:57:17.424Z,39.60
2017-12-20T14:59:45.306Z,31.77
2017-12-20T15:02:12.796Z,36.92
2017-12-20T15:04:40.256Z,38.20
2017-12-20T15:07:08.504Z,36.70
2017-12-20T15:09:37.323Z,43.75
2017-12-20T15:12:04.820Z,62.88
2017-12-20T15:14:32.287Z,45.22
2017-12-20T15:17:00.427Z,73.03
2017-12-20T15:19:28.647Z,43.53
2017-12-20T15:21:56.577Z,38.70
2017-12-20T15:24:24.069Z,37.45
2017-12-20T15:26:52.329Z,34.78
2017-12-20T15:29:20.948Z,37.38
2017-12-20T15:31:48.798Z,39.83
2017-12-20T15:34:16.249Z,42.00
2017-12-20T15:36:43.711Z,42.38
2017-12-20T15:39:11.189Z,33.78
2017-12-20T15:41:39.486Z,38.63
2017-12-20T15:44:07.721Z,41.63
2017-12-20T15:46:35.944Z,35.17
2017-12-20T15:49:03.409Z,34.60
2017-12-20T15:51:30.967Z,42.90
2017-12-20T15:53:59.640Z,40.25
2017-12-20T15:56:27.908Z,39.10
2017-12-20T15:58:56.157Z,46.35
2017-12-20T16:01:23.616Z,51.75
2017-12-20T16:03:51.144Z,57.20
2017-12-20T16:06:19.400Z,52.85
2017-12-20T16:08:47.656Z,57.65
2017-12-20T16:11:15.208Z,44.58
2017-12-20T16:13:43.441Z,49.90
2017-12-20T16:16:10.895Z,53.70
2017-12-20T16:18:38.370Z,51.13
2017-12-20T16:21:07.041Z,49.17
2017-12-20T16:23:34.500Z,68.47
2017-12-20T16:26:02.004Z,53.70
2017-12-20T16:28:30.364Z,57.97
2017-12-20T16:30:58.628Z,58.38
2017-12-20T16:33:26.883Z,56.42
2017-12-20T16:35:55.131Z,61.80
2017-12-20T16:38:23.048Z,66.12
2017-12-20T16:40:50.500Z,49.97
2017-12-20T16:43:17.964Z,65.85
2017-12-20T16:45:45.552Z,68.95
2017-12-20T16:48:13.062Z,72.68
2017-12-20T16:50:40.611Z,65.35
2017-12-20T16:53:09.629Z,63.53
2017-12-20T16:55:37.136Z,62.70
2017-12-20T16:58:05.400Z,69.22
2017-12-20T17:00:33.960Z,77.43
2017-12-20T17:03:01.508Z,52.25
2017-12-20T17:05:29.765Z,69.75
2017-12-20T17:07:58.384Z,74.55
2017-12-20T17:10:25.860Z,81.65
2017-12-20T17:12:53.337Z,100.43
2017-12-20T17:15:21.535Z,83.75
2017-12-20T17:17:48.996Z,63.55
2017-12-20T17:20:16.604Z,59.85
2017-12-20T17:22:44.591Z,68.50
2017-12-20T17:25:12.944Z,76.53
2017-12-20T17:27:40.425Z,89.20
2017-12-20T17:30:08.687Z,77.07
2017-12-20T17:32:36.940Z,74.28
2017-12-20T17:35:05.767Z,65.80
2017-12-20T17:37:33.817Z,96.50
2017-12-20T17:40:01.321Z,91.55
2017-12-20T17:42:29.553Z,66.50
2017-12-20T17:44:57.012Z,79.85
2017-12-20T17:47:26.092Z,72.78
2017-12-20T17:49:54.315Z,75.18
2017-12-20T17:52:21.788Z,91.43
2017-12-20T17:54:49.695Z,89.82
2017-12-20T17:57:17.237Z,99.35
2017-12-20T17:59:44.696Z,105.18
2017-12-20T18:02:12.181Z,76.22
2017-12-20T18:04:40.408Z,73.07
2017-12-20T18:07:07.894Z,63.15
2017-12-20T18:09:36.236Z,94.20
2017-12-20T18:12:04.496Z,78.47
2017-12-20T18:14:32.044Z,100.20
2017-12-20T18:22:33.978Z,85.20
2017-12-20T18:25:01.447Z,62.05
2017-12-20T18:27:29.655Z,69.03
2017-12-20T18:29:57.236Z,85.28
2017-12-20T18:32:25.456Z,72.10
2017-12-20T18:34:52.945Z,63.42
2017-12-20T18:37:20.484Z,54.70
2017-12-20T18:39:48.724Z,71.37
2017-12-20T18:42:16.232Z,70.60
2017-12-20T18:44:44.035Z,73.90
2017-12-20T18:47:12.297Z,64.85
2017-12-20T18:49:40.553Z,52.50
2017-12-20T18:52:08.815Z,40.70
2017-12-20T18:54:36.269Z,53.87
2017-12-20T18:57:04.510Z,56.58
2017-12-20T18:59:31.971Z,60.63
2017-12-20T19:02:00.211Z,56.47
2017-12-20T19:04:27.808Z,51.50
2017-12-20T19:06:55.361Z,50.70
2017-12-20T19:09:22.848Z,44.47
2017-12-20T19:11:50.292Z,49.60
2017-12-20T19:14:18.546Z,49.45
2017-12-20T19:16:46.009Z,42.42
2017-12-20T19:19:13.665Z,50.80
2017-12-20T19:21:41.239Z,53.10
2017-12-20T19:24:08.958Z,47.17
2017-12-20T19:26:36.432Z,53.53
2017-12-20T19:29:04.007Z,52.38
2017-12-20T19:31:31.595Z,41.40
2017-12-20T19:33:59.107Z,56.78
2017-12-20T19:36:27.341Z,52.70
2017-12-20T19:38:54.842Z,51.67
2017-12-20T19:41:22.308Z,52.85
2017-12-20T19:43:49.765Z,60.78
2017-12-20T19:46:17.381Z,47.47
2017-12-20T19:48:44.977Z,50.78
2017-12-20T19:51:13.237Z,44.40
2017-12-20T19:53:41.469Z,62.35
2017-12-20T19:56:08.940Z,50.72
2017-12-20T19:58:37.191Z,51.33
2017-12-20T20:01:04.655Z,50.83
2017-12-20T20:03:32.898Z,45.35
2017-12-20T20:06:00.483Z,40.53
2017-12-20T20:08:27.938Z,44.08
2017-12-20T20:10:55.433Z,46.35
2017-12-20T20:13:23.708Z,35.47
2017-12-20T20:15:51.429Z,36.20
2017-12-20T20:18:19.663Z,37.80
2017-12-20T20:20:47.132Z,39.33
2017-12-20T20:23:14.680Z,37.53
2017-12-20T20:25:42.936Z,40.10
2017-12-20T20:28:10.392Z,37.72
2017-12-20T20:30:38.653Z,34.70
2017-12-20T20:33:06.884Z,33.05
2017-12-20T20:35:34.343Z,40.70
2017-12-20T20:38:01.884Z,35.63
2017-12-20T20:40:30.104Z,32.78
2017-12-20T20:42:57.581Z,46.15
2017-12-20T20:45:25.129Z,46.88
2017-12-20T20:47:53.440Z,43.70
2017-12-20T20:50:20.914Z,42.45
2017-12-20T20:52:48.373Z,39.85
2017-12-20T20:55:16.656Z,40.22
2017-12-20T20:57:44.121Z,52.38
2017-12-20T21:00:17.856Z,38.38
2017-12-20T21:02:45.340Z,32.70
2017-12-20T21:05:12.856Z,31.67
2017-12-20T21:07:41.114Z,42.20
2017-12-20T21:10:11.296Z,41.67
2017-12-20T21:12:38.759Z,30.92
2017-12-20T21:15:07.004Z,38.17
2017-12-20T21:17:34.480Z,38.55
2017-12-20T21:20:02.011Z,40.65
2017-12-20T21:22:30.240Z,35.47
2017-12-20T21:24:57.801Z,42.38
2017-12-20T21:27:26.065Z,28.02
2017-12-20T21:29:54.343Z,33.08
2017-12-20T21:32:22.592Z,39.38
2017-12-20T21:34:50.845Z,38.60
2017-12-20T21:37:19.088Z,35.47
2017-12-20T21:39:46.541Z,33.15
2017-12-20T21:42:14.021Z,30.98
2017-12-20T21:44:41.542Z,32.38
2017-12-20T21:47:09.760Z,33.40
2017-12-20T21:49:37.331Z,37.53
2017-12-20T21:52:05.564Z,41.58
2017-12-20T21:54:33.048Z,32.15
2017-12-20T21:57:01.301Z,29.25
2017-12-20T21:59:29.664Z,28.67
2017-12-20T22:01:57.092Z,31.50
2017-12-20T22:04:24.567Z,37.25
2017-12-20T22:06:52.288Z,26.87
2017-12-20T22:09:20.549Z,34.60
2017-12-20T22:11:48.772Z,38.08
2017-12-20T22:14:16.251Z,35.58
2017-12-20T22:16:44.508Z,33.88
2017-12-20T22:19:12.780Z,36.47
2017-12-20T22:21:41.477Z,42.33
2017-12-20T22:24:08.928Z,27.23
2017-12-20T22:26:36.391Z,35.92
2017-12-20T22:29:03.878Z,43.90
2017-12-20T22:31:32.115Z,36.80
2017-12-20T22:33:59.668Z,34.55
2017-12-20T22:36:28.032Z,31.35
2017-12-20T22:38:55.488Z,27.37
2017-12-20T22:41:23.740Z,44.10
2017-12-20T22:43:51.973Z,34.17
2017-12-20T22:46:19.544Z,33.42
2017-12-20T22:48:47.800Z,36.72
2017-12-20T22:51:16.027Z,35.33
2017-12-20T22:53:43.484Z,28.55
2017-12-20T22:56:11.032Z,31.50
2017-12-20T22:58:38.586Z,28.77
2017-12-20T23:01:06.236Z,31.45
2017-12-20T23:03:34.472Z,27.17
2017-12-20T23:06:01.940Z,31.70
2017-12-20T23:08:30.184Z,37.88
2017-12-20T23:10:59.152Z,29.98
2017-12-20T23:13:26.608Z,28.65
2017-12-20T23:15:54.838Z,30.85
2017-12-20T23:18:22.324Z,35.15
2017-12-20T23:20:50.562Z,33.35
2017-12-20T23:23:19.536Z,33.78
2017-12-20T23:25:47.004Z,30.83
2017-12-20T23:28:15.252Z,30.67
2017-12-20T23:30:43.526Z,31.50
2017-12-20T23:33:11.752Z,30.52
2017-12-20T23:35:39.317Z,36.50
2017-12-20T23:38:07.557Z,27.37
2017-12-20T23:40:35.018Z,37.70
2017-12-20T23:43:03.282Z,32.88
2017-12-20T23:45:31.540Z,38.95
2017-12-20T23:47:59.760Z,35.63
2017-12-20T23:50:27.598Z,31.37
2017-12-20T23:52:55.088Z,30.75
2017-12-20T23:55:22.627Z,33.50
2017-12-20T23:57:50.100Z,37.58
